Aviation Digital Data Service (ADDS)

Output produced by METARs form (1415 UTC 01 October 2014)
found at http://aviationweather.gov/adds/metars/
 
KBGR 011236Z 0113/0212 03007KT P6SM BKN015 
     FM011600 04007KT P6SM OVC060 
     FM012000 04006KT P6SM BKN040 
     FM020600 02009KT P6SM OVC025